Time;durP1;ratioP1;P1;durP2;ratioP2;P2;SDS_P1;SDS_P2;PMS_P1;PMS_P2;Temp;Humidity;BMP_temperature;BMP_pressure;BME280_temperature;BME280_humidity;BME280_pressure;Samples;Min_cycle;Max_cycle;Signal;HPM_P1;HPM_P2
2023/01/07 00:00:15;;;;;;;23.60;21.20;;;;;;;6.73;100.00;98218.23;104005;1310;22470;-89
2023/01/07 00:03:03;;;;;;;25.40;23.00;;;;;;;6.70;100.00;98217.91;103629;1309;24331;-90
2023/01/07 00:05:31;;;;;;;25.50;23.30;;;;;;;6.68;100.00;98208.67;103547;1309;22490;-87
2023/01/07 00:08:03;;;;;;;24.80;22.50;;;;;;;6.68;100.00;98209.75;103662;1309;25326;-88
2023/01/07 00:10:33;;;;;;;26.50;24.20;;;;;;;6.68;100.00;98213.20;103889;1310;22480;-86
2023/01/07 00:13:01;;;;;;;26.20;23.80;;;;;;;6.67;100.00;98218.11;103818;1309;22726;-87
2023/01/07 00:15:29;;;;;;;24.90;22.70;;;;;;;6.66;100.00;98215.81;103963;1312;22525;-87
2023/01/07 00:17:57;;;;;;;24.90;22.70;;;;;;;6.66;100.00;98214.95;103852;1309;24418;-85
2023/01/07 00:20:25;;;;;;;26.40;24.00;;;;;;;6.68;100.00;98213.52;104120;1309;22533;-87
2023/01/07 00:22:53;;;;;;;28.30;25.40;;;;;;;6.66;100.00;98214.04;103873;1308;22523;-89
2023/01/07 00:25:21;;;;;;;27.10;24.70;;;;;;;6.62;100.00;98220.40;103951;1312;22562;-87
2023/01/07 00:27:49;;;;;;;27.50;25.00;;;;;;;6.61;100.00;98225.59;103383;1312;25384;-88
2023/01/07 00:30:17;;;;;;;27.00;24.60;;;;;;;6.61;100.00;98230.45;103566;1312;22479;-88
2023/01/07 00:32:58;;;;;;;24.70;22.40;;;;;;;6.61;100.00;98229.16;103587;1309;24341;-87
2023/01/07 00:35:27;;;;;;;28.60;26.00;;;;;;;6.62;100.00;98229.77;103595;1309;22487;-86
2023/01/07 00:37:55;;;;;;;29.20;26.50;;;;;;;6.60;100.00;98228.43;103664;1307;22605;-87
2023/01/07 00:40:23;;;;;;;31.50;28.60;;;;;;;6.59;100.00;98226.02;103521;1310;22631;-88
2023/01/07 00:42:54;;;;;;;30.70;28.10;;;;;;;6.56;100.00;98228.91;103499;1309;24495;-86
2023/01/07 00:45:24;;;;;;;29.80;27.10;;;;;;;6.52;100.00;98231.94;103468;1312;24302;-86
2023/01/07 00:47:52;;;;;;;28.70;25.90;;;;;;;6.52;100.00;98224.34;103599;1312;22576;-86
2023/01/07 00:50:22;;;;;;;30.00;27.50;;;;;;;6.49;100.00;98226.79;103398;1312;22608;-86
2023/01/07 00:52:50;;;;;;;29.70;27.00;;;;;;;6.46;100.00;98230.64;103543;1310;22475;-87
2023/01/07 00:55:19;;;;;;;29.60;27.00;;;;;;;6.43;100.00;98230.10;103485;1309;22599;-87
2023/01/07 00:57:47;;;;;;;34.70;31.60;;;;;;;6.40;100.00;98232.66;103504;1294;24379;-88
2023/01/07 01:00:18;;;;;;;32.40;29.30;;;;;;;6.37;100.00;98238.42;103562;1310;24256;-86
2023/01/07 01:03:12;;;;;;;34.60;31.40;;;;;;;6.36;100.00;98238.31;104141;1286;22429;-87
2023/01/07 01:05:41;;;;;;;;;;;;;;;6.35;100.00;98247.85;103966;1310;22628;-87
2023/01/07 01:08:10;;;;;;;30.50;27.60;;;;;;;6.33;100.00;98248.96;103949;1310;22547;-88
2023/01/07 01:10:38;;;;;;;30.40;27.70;;;;;;;6.33;100.00;98254.84;103921;1309;22493;-87
2023/01/07 01:13:09;;;;;;;30.50;27.60;;;;;;;6.34;100.00;98259.88;103824;1309;22504;-87
2023/01/07 01:15:41;;;;;;;31.70;28.60;;;;;;;6.34;100.00;98262.98;103737;1309;25350;-87
2023/01/07 01:18:10;;;;;;;34.40;31.40;;;;;;;6.33;100.00;98256.89;103712;1310;22512;-86
2023/01/07 01:20:39;;;;;;;34.20;31.10;;;;;;;6.30;100.00;98257.52;103580;1309;22627;-88
2023/01/07 01:23:07;;;;;;;33.70;30.60;;;;;;;6.27;100.00;98258.73;103524;1309;24204;-87
2023/01/07 01:30:22;;;;;;;34.40;31.30;;;;;;;6.22;100.00;98268.29;103582;1309;22526;-88
2023/01/07 01:32:50;;;;;;;34.50;31.30;;;;;;;6.19;100.00;98268.22;103338;1312;22597;-88
2023/01/07 01:36:12;;;;;;;41.40;37.70;;;;;;;6.18;100.00;98269.55;103599;1312;22475;-86
2023/01/07 01:38:40;;;;;;;41.30;37.50;;;;;;;6.13;100.00;98266.33;103410;1310;22510;-87
2023/01/07 01:41:09;;;;;;;42.20;38.40;;;;;;;6.12;100.00;98265.80;103547;1309;24248;-86
2023/01/07 01:43:40;;;;;;;41.40;37.70;;;;;;;6.12;100.00;98261.88;103580;1309;24458;-87
2023/01/07 01:46:18;;;;;;;39.70;35.80;;;;;;;6.11;100.00;98267.61;103600;1309;22603;-85
2023/01/07 01:48:56;;;;;;;41.20;37.20;;;;;;;6.11;100.00;98266.20;103518;1312;22487;-86
2023/01/07 01:51:26;;;;;;;40.50;36.50;;;;;;;6.12;100.00;98269.27;103543;1312;25470;-87
2023/01/07 01:53:55;;;;;;;45.70;41.40;;;;;;;6.11;100.00;98268.56;103661;1312;25291;-87
2023/01/07 01:56:32;;;;;;;42.70;38.50;;;;;;;6.09;100.00;98266.41;103406;1310;22493;-87
2023/01/07 01:59:05;;;;;;;39.70;36.20;;;;;;;6.06;100.00;98263.30;103493;1303;24226;-86
2023/01/07 02:01:35;;;;;;;42.50;38.90;;;;;;;6.05;100.00;98262.44;103846;1313;25319;-87
2023/01/07 02:04:17;;;;;;;39.30;36.00;;;;;;;6.05;100.00;98263.98;103692;1310;24458;-86
2023/01/07 02:07:09;;;;;;;42.90;39.20;;;;;;;6.06;100.00;98261.45;103554;1312;22590;-86
2023/01/07 02:09:40;;;;;;;38.80;35.50;;;;;;;6.08;100.00;98262.51;103596;1311;22578;-87
2023/01/07 02:12:31;;;;;;;51.50;47.00;;;;;;;6.09;100.00;98264.81;103561;1293;25682;-86
2023/01/07 02:15:21;;;;;;;52.20;47.70;;;;;;;6.06;100.00;98265.27;103664;1314;22464;-87
2023/01/07 02:18:04;;;;;;;39.00;35.60;;;;;;;6.04;100.00;98265.53;103606;1313;22608;-88
2023/01/07 02:20:44;;;;;;;40.60;37.10;;;;;;;6.02;100.00;98268.63;103736;1310;22462;-88
2023/01/07 02:23:50;;;;;;;35.80;32.70;;;;;;;6.02;100.00;98273.86;103539;1310;24020;-88
2023/01/07 02:26:47;;;;;;;38.10;34.90;;;;;;;6.01;100.00;98275.41;103469;1308;22990;-89
2023/01/07 02:29:34;;;;;;;39.90;36.50;;;;;;;6.00;100.00;98278.72;103620;1308;22480;-89
2023/01/07 02:32:14;;;;;;;39.50;35.90;;;;;;;5.97;100.00;98274.12;104836;1302;22487;-89
2023/01/07 02:35:04;;;;;;;39.20;35.70;;;;;;;5.96;100.00;98275.86;103595;1310;22560;-88
2023/01/07 02:38:04;;;;;;;37.90;34.50;;;;;;;5.95;100.00;98274.20;104801;1309;22731;-89
2023/01/07 02:40:35;;;;;;;38.30;34.90;;;;;;;5.94;100.00;98274.02;103404;1308;23820;-87
2023/01/07 02:43:09;;;;;;;35.70;32.70;;;;;;;5.95;100.00;98267.05;103511;1309;25413;-86
2023/01/07 02:45:46;;;;;;;37.10;34.00;;;;;;;5.94;100.00;98265.52;103659;1309;23225;-86
2023/01/07 02:48:18;;;;;;;35.60;32.10;;;;;;;5.95;100.00;98264.89;103521;1310;22546;-86
2023/01/07 02:50:46;;;;;;;38.40;35.10;;;;;;;5.97;100.00;98275.02;103338;1311;25327;-86
2023/01/07 02:53:18;;;;;;;39.80;36.30;;;;;;;5.99;100.00;98278.55;103351;1311;22544;-86
2023/01/07 02:56:11;;;;;;;44.90;41.10;;;;;;;5.97;100.00;98282.45;103599;1291;22595;-87
2023/01/07 02:59:13;;;;;;;40.80;37.20;;;;;;;5.91;100.00;98281.59;103549;1309;22608;-87
2023/01/07 03:02:19;;;;;;;40.20;36.60;;;;;;;5.87;100.00;98277.71;103610;1310;24405;-87
2023/01/07 03:05:10;;;;;;;;;;;;;;;5.88;100.00;98275.80;103599;1309;25222;-87
2023/01/07 03:08:01;;;;;;;36.50;33.00;;;;;;;5.88;100.00;98274.13;103470;1309;22531;-87
2023/01/07 03:10:50;;;;;;;37.30;34.10;;;;;;;5.87;100.00;98278.79;103620;1303;24052;-87
2023/01/07 03:13:44;;;;;;;40.60;36.90;;;;;;;5.84;100.00;98277.16;103611;1310;23207;-87
2023/01/07 03:16:33;;;;;;;44.30;40.20;;;;;;;5.79;100.00;98272.20;103626;1309;24263;-86
2023/01/07 03:19:08;;;;;;;40.10;36.40;;;;;;;5.76;100.00;98271.23;103506;1309;22488;-88
2023/01/07 03:21:37;;;;;;;35.50;32.40;;;;;;;5.77;100.00;98278.56;103590;1311;22492;-88
2023/01/07 03:24:07;;;;;;;32.50;29.70;;;;;;;5.74;100.00;98275.28;103589;1306;25384;-86
2023/01/07 03:26:42;;;;;;;34.40;31.30;;;;;;;5.75;100.00;98272.56;103559;1307;25279;-87
2023/01/07 03:29:13;;;;;;;38.60;35.30;;;;;;;5.76;100.00;98280.55;103618;1310;22537;-86
2023/01/07 03:32:05;;;;;;;43.00;39.20;;;;;;;5.76;100.00;98275.81;103517;1306;22598;-86
2023/01/07 03:34:36;;;;;;;37.70;34.60;;;;;;;5.74;100.00;98274.32;103544;1310;23358;-86
2023/01/07 03:37:09;;;;;;;35.00;32.10;;;;;;;5.73;100.00;98269.48;103448;1310;25244;-86
2023/01/07 03:39:39;;;;;;;33.30;30.40;;;;;;;5.73;100.00;98266.13;103467;1310;23182;-88
2023/01/07 03:44:57;;;;;;;31.40;28.60;;;;;;;5.70;100.00;98266.89;103522;1309;25644;-86
2023/01/07 03:47:27;;;;;;;33.20;30.40;;;;;;;5.69;100.00;98268.89;103623;1303;22870;-86
2023/01/07 03:49:55;;;;;;;37.10;33.90;;;;;;;5.67;100.00;98274.81;103691;1309;22640;-86
2023/01/07 03:52:23;;;;;;;36.50;33.40;;;;;;;5.65;100.00;98275.27;103517;1310;22544;-86
2023/01/07 03:54:52;;;;;;;35.20;32.20;;;;;;;5.63;100.00;98273.13;103493;1310;22504;-85
2023/01/07 03:57:25;;;;;;;33.00;30.10;;;;;;;5.63;100.00;98269.06;103606;1310;25330;-86
2023/01/07 03:59:53;;;;;;;48.50;44.50;;;;;;;5.64;100.00;98269.21;103540;1292;22507;-85
2023/01/07 04:02:21;;;;;;;40.60;36.90;;;;;;;5.63;100.00;98271.63;103559;1310;22494;-85
2023/01/07 04:04:53;;;;;;;34.90;31.90;;;;;;;5.63;100.00;98273.07;103575;1310;25217;-86
2023/01/07 04:07:21;;;;;;;35.10;32.20;;;;;;;5.57;100.00;98266.88;103565;1311;26735;-86
2023/01/07 04:09:49;;;;;;;34.10;31.10;;;;;;;5.47;100.00;98269.59;103536;1310;25464;-85
2023/01/07 04:12:18;;;;;;;30.90;28.20;;;;;;;5.38;100.00;98270.44;103521;1310;22494;-85
2023/01/07 04:14:46;;;;;;;30.30;27.70;;;;;;;5.24;100.00;98270.69;103456;1310;22520;-88
2023/01/07 04:17:14;;;;;;;30.70;28.10;;;;;;;5.13;100.00;98270.33;103483;1312;22488;-84
2023/01/07 04:19:42;;;;;;;31.40;28.60;;;;;;;5.06;100.00;98274.75;103417;1309;24462;-84
2023/01/07 04:22:37;;;;;;;31.60;29.00;;;;;;;4.99;100.00;98277.90;103352;1309;22485;-85
2023/01/07 04:25:07;;;;;;;39.20;36.00;;;;;;;4.86;100.00;98277.99;103570;1309;22501;-85
2023/01/07 04:27:35;;;;;;;36.70;33.70;;;;;;;4.81;100.00;98280.92;104447;1311;22580;-86
2023/01/07 04:30:04;;;;;;;37.30;34.00;;;;;;;4.81;100.00;98283.59;103887;1304;22496;-86
2023/01/07 04:32:34;;;;;;;35.40;32.30;;;;;;;4.82;100.00;98285.46;103391;1309;22981;-86
2023/01/07 04:35:02;;;;;;;39.00;35.60;;;;;;;4.83;100.00;98286.88;103767;1301;23382;-86
2023/01/07 04:37:30;;;;;;;34.70;31.70;;;;;;;4.87;100.00;98285.05;103414;1304;22871;-86
2023/01/07 04:39:59;;;;;;;33.50;30.60;;;;;;;4.92;100.00;98283.48;103522;1310;25320;-87
2023/01/07 04:42:29;;;;;;;45.30;41.60;;;;;;;4.90;100.00;98276.59;105301;1312;22521;-86
2023/01/07 04:44:57;;;;;;;38.20;34.90;;;;;;;4.92;100.00;98278.36;105475;1293;24279;-85
2023/01/07 04:47:25;;;;;;;44.30;40.30;;;;;;;4.90;100.00;98285.39;105258;1310;22571;-85
2023/01/07 04:50:20;;;;;;;45.20;41.60;;;;;;;4.77;100.00;98277.79;103955;1310;22709;-86
2023/01/07 04:52:48;;;;;;;39.00;35.70;;;;;;;4.70;100.00;98280.82;103398;1312;22680;-87
2023/01/07 04:55:17;;;;;;;43.10;39.60;;;;;;;4.64;100.00;98285.55;103700;1309;22556;-85
2023/01/07 05:02:32;;;;;;;53.30;48.90;;;;;;;4.45;100.00;98285.89;103488;1309;25700;-85
2023/01/07 05:05:02;;;;;;;50.20;46.00;;;;;;;4.39;100.00;98289.55;103514;1310;22488;-83
2023/01/07 05:07:32;;;;;;;49.80;45.70;;;;;;;4.38;100.00;98290.01;103403;1309;22533;-83
2023/01/07 05:10:05;;;;;;;44.60;41.00;;;;;;;4.30;100.00;98290.46;103718;1310;22427;-86
2023/01/07 05:12:34;;;;;;;40.30;36.90;;;;;;;4.28;100.00;98296.83;104650;1309;22471;-86
2023/01/07 05:15:04;;;;;;;40.80;37.40;;;;;;;4.36;100.00;98296.44;103320;1309;22475;-87
2023/01/07 05:17:34;;;;;;;39.90;36.50;;;;;;;4.43;100.00;98301.91;103437;1309;24364;-84
2023/01/07 05:20:04;;;;;;;43.90;40.40;;;;;;;4.47;100.00;98300.58;103390;1310;22578;-86
2023/01/07 05:22:34;;;;;;;48.70;44.80;;;;;;;4.49;100.00;98303.95;104677;1311;22486;-87
2023/01/07 05:25:03;;;;;;;52.50;48.20;;;;;;;4.48;100.00;98305.71;103594;1310;22709;-86
2023/01/07 05:27:31;;;;;;;50.50;46.20;;;;;;;4.43;100.00;98299.58;103620;1310;22551;-86
2023/01/07 05:30:00;;;;;;;49.60;45.40;;;;;;;4.40;100.00;98294.83;103457;1309;22525;-84
2023/01/07 05:32:28;;;;;;;47.20;43.30;;;;;;;4.34;100.00;98294.81;103554;1310;25229;-85
2023/01/07 05:34:56;;;;;;;44.60;40.90;;;;;;;4.24;100.00;98294.64;103659;1309;22523;-84
2023/01/07 05:37:25;;;;;;;50.40;37.30;;;;;;;4.11;100.00;98296.17;103480;1309;22494;-84
2023/01/07 05:39:53;;;;;;;49.00;42.40;;;;;;;3.89;100.00;98298.60;103388;1309;22598;-84
2023/01/07 05:42:22;;;;;;;45.20;41.20;;;;;;;3.71;100.00;98303.66;103451;1308;22614;-85
2023/01/07 05:44:51;;;;;;;44.60;40.80;;;;;;;3.60;100.00;98306.02;103485;1309;22492;-85
2023/01/07 05:47:24;;;;;;;52.70;48.10;;;;;;;3.55;100.00;98308.66;103527;1309;24348;-86
2023/01/07 05:49:52;;;;;;;63.30;55.20;;;;;;;3.57;100.00;98308.30;103719;1310;27081;-86
2023/01/07 05:57:00;;;;;;;81.70;70.40;;;;;;;3.52;100.00;98306.17;103444;1309;25219;-85
2023/01/07 05:59:28;;;;;;;66.00;59.90;;;;;;;3.51;100.00;98304.76;103406;1309;22502;-85
2023/01/07 06:01:56;;;;;;;65.40;58.40;;;;;;;3.50;100.00;98303.68;103420;1309;22464;-85
2023/01/07 06:04:24;;;;;;;61.70;55.40;;;;;;;3.49;100.00;98301.27;103434;1287;25443;-85
2023/01/07 06:06:52;;;;;;;54.30;48.50;;;;;;;3.47;100.00;98301.25;103513;1309;23408;-85
2023/01/07 06:09:21;;;;;;;84.60;52.60;;;;;;;3.36;100.00;98302.59;103510;1304;22882;-85
2023/01/07 06:11:49;;;;;;;63.00;55.90;;;;;;;3.25;100.00;98304.23;103308;1309;24386;-86
2023/01/07 06:14:17;;;;;;;87.40;62.50;;;;;;;3.23;100.00;98306.40;103424;1309;22504;-86
2023/01/07 06:16:45;;;;;;;120.50;76.80;;;;;;;3.21;100.00;98305.73;103372;1309;24212;-87
2023/01/07 06:19:13;;;;;;;160.30;78.20;;;;;;;3.24;100.00;98303.95;103504;1309;22626;-85
2023/01/07 06:21:41;;;;;;;116.70;66.30;;;;;;;3.25;100.00;98303.42;103489;1310;24421;-85
2023/01/07 06:24:10;;;;;;;49.40;45.00;;;;;;;3.19;100.00;98308.76;103478;1309;22490;-85
2023/01/07 06:26:38;;;;;;;62.80;57.00;;;;;;;3.12;100.00;98308.17;103524;1310;22574;-87
2023/01/07 06:29:06;;;;;;;62.90;56.90;;;;;;;3.10;100.00;98306.75;103426;1303;24041;-86
2023/01/07 06:31:34;;;;;;;63.10;57.50;;;;;;;3.10;100.00;98307.86;103545;1309;22606;-86
2023/01/07 06:34:02;;;;;;;69.20;63.20;;;;;;;3.10;100.00;98310.11;103387;1310;22693;-86
2023/01/07 06:36:30;;;;;;;56.80;51.70;;;;;;;3.17;100.00;98308.48;103477;1309;24486;-86
2023/01/07 06:38:58;;;;;;;54.20;49.40;;;;;;;3.21;100.00;98306.02;103559;1309;22513;-86
2023/01/07 06:41:26;;;;;;;58.10;53.00;;;;;;;3.21;100.00;98309.38;103655;1309;22603;-87
2023/01/07 06:43:54;;;;;;;56.30;51.20;;;;;;;3.13;100.00;98309.63;103639;1294;23314;-85
2023/01/07 06:46:22;;;;;;;67.40;61.90;;;;;;;3.14;100.00;98310.54;103519;1299;22513;-85
2023/01/07 06:48:50;;;;;;;64.10;58.50;;;;;;;3.19;100.00;98313.19;103486;1309;22629;-85
2023/01/07 06:51:18;;;;;;;60.40;55.20;;;;;;;3.26;100.00;98315.59;103651;1309;22709;-85
2023/01/07 06:53:46;;;;;;;60.90;55.60;;;;;;;3.31;100.00;98317.86;103490;1285;25301;-85
2023/01/07 06:56:14;;;;;;;61.00;55.80;;;;;;;3.32;100.00;98313.86;103453;1310;22723;-85
2023/01/07 06:58:44;;;;;;;55.80;51.00;;;;;;;3.38;100.00;98316.44;103441;1309;25270;-85
2023/01/07 07:01:12;;;;;;;62.20;57.00;;;;;;;3.42;100.00;98322.58;103381;1313;24384;-85
2023/01/07 07:03:40;;;;;;;59.80;54.70;;;;;;;3.40;100.00;98322.75;103328;1309;23902;-85
2023/01/07 07:06:08;;;;;;;69.30;62.40;;;;;;;3.40;100.00;98319.55;103468;1309;22499;-86
2023/01/07 07:08:36;;;;;;;82.50;72.70;;;;;;;3.46;100.00;98317.88;103408;1309;22467;-85
2023/01/07 07:11:04;;;;;;;72.80;65.80;;;;;;;3.51;100.00;98311.15;103360;1309;24257;-85
2023/01/07 07:13:32;;;;;;;68.90;62.50;;;;;;;3.58;100.00;98309.60;103330;1310;22536;-86
2023/01/07 07:16:00;;;;;;;65.90;60.00;;;;;;;3.64;100.00;98316.94;103553;1309;24434;-86
2023/01/07 07:18:29;;;;;;;73.60;66.30;;;;;;;3.68;100.00;98322.88;103547;1288;22491;-85
2023/01/07 07:20:57;;;;;;;157.30;68.50;;;;;;;3.67;100.00;98321.04;103530;1309;22477;-84
2023/01/07 07:23:25;;;;;;;118.90;65.20;;;;;;;3.58;100.00;98318.19;103456;1303;22508;-85
2023/01/07 07:25:53;;;;;;;157.80;62.50;;;;;;;3.56;100.00;98322.27;103596;1287;22597;-85
2023/01/07 07:28:21;;;;;;;188.40;66.50;;;;;;;3.54;100.00;98322.55;103694;1309;24280;-85
2023/01/07 07:30:49;;;;;;;160.20;68.40;;;;;;;3.56;100.00;98320.45;103459;1309;22498;-85
2023/01/07 07:33:17;;;;;;;179.40;68.50;;;;;;;3.60;100.00;98316.79;103435;1309;22548;-85
2023/01/07 07:35:47;;;;;;;204.70;76.10;;;;;;;3.63;100.00;98314.27;103387;1294;180494;-85
2023/01/07 07:38:16;;;;;;;277.10;73.00;;;;;;;3.65;100.00;98318.98;103377;1308;22481;-86
2023/01/07 07:40:45;;;;;;;195.20;61.80;;;;;;;3.63;100.00;98322.95;103540;1308;23197;-85
2023/01/07 07:43:14;;;;;;;153.40;64.40;;;;;;;3.63;100.00;98329.95;103520;1289;22576;-85
2023/01/07 07:45:42;;;;;;;175.60;61.80;;;;;;;3.70;100.00;98327.50;103712;1304;22503;-86
2023/01/07 07:48:15;;;;;;;121.40;62.20;;;;;;;3.77;100.00;98328.92;103817;1309;24257;-85
2023/01/07 07:50:43;;;;;;;172.10;59.80;;;;;;;3.82;100.00;98326.71;103601;1309;24378;-84
2023/01/07 07:53:11;;;;;;;211.40;59.50;;;;;;;3.85;100.00;98330.38;103433;1309;25460;-86
2023/01/07 07:55:40;;;;;;;203.30;58.30;;;;;;;3.88;100.00;98328.02;103409;1309;22490;-86
2023/01/07 07:58:08;;;;;;;172.70;66.80;;;;;;;3.90;100.00;98327.93;103609;1309;24407;-86
2023/01/07 08:00:36;;;;;;;74.20;64.20;;;;;;;3.94;100.00;98323.52;103560;1309;22895;-87
2023/01/07 08:03:04;;;;;;;141.30;58.70;;;;;;;4.03;100.00;98323.65;103588;1310;25341;-86
2023/01/07 08:05:32;;;;;;;135.20;53.60;;;;;;;4.12;100.00;98326.05;103859;1310;22478;-88
2023/01/07 08:08:00;;;;;;;209.40;64.60;;;;;;;4.17;100.00;98317.02;103831;1309;25211;-85
2023/01/07 08:10:29;;;;;;;187.30;59.70;;;;;;;4.24;100.00;98319.48;103529;1300;24248;-87
2023/01/07 08:12:57;;;;;;;119.90;64.50;;;;;;;4.27;100.00;98316.27;103410;1309;22588;-85
2023/01/07 08:16:17;;;;;;;95.10;60.40;;;;;;;4.34;100.00;98320.37;103547;1309;25342;-85
2023/01/07 08:18:45;;;;;;;106.10;71.10;;;;;;;4.48;100.00;98322.20;103550;1309;25119;-85
2023/01/07 08:21:14;;;;;;;100.90;65.70;;;;;;;4.61;100.00;98323.04;103510;1309;22503;-85
2023/01/07 08:23:42;;;;;;;64.00;57.90;;;;;;;4.73;100.00;98320.35;103401;1310;25248;-86
2023/01/07 08:26:10;;;;;;;62.30;56.70;;;;;;;4.84;100.00;98321.96;103413;1309;22539;-85
2023/01/07 08:28:38;;;;;;;62.10;55.50;;;;;;;4.94;100.00;98318.21;103509;1309;25433;-85
2023/01/07 08:31:07;;;;;;;64.90;59.00;;;;;;;4.99;100.00;98317.64;103474;1309;22592;-86
2023/01/07 08:33:37;;;;;;;58.90;53.90;;;;;;;5.06;100.00;98321.17;103522;1310;24443;-85
2023/01/07 08:36:08;;;;;;;58.70;53.80;;;;;;;5.18;100.00;98324.13;103507;1305;24378;-88
2023/01/07 08:38:53;;;;;;;62.60;57.00;;;;;;;5.34;100.00;98327.20;103563;1310;22477;-86
2023/01/07 08:41:23;;;;;;;55.30;50.30;;;;;;;5.47;100.00;98326.46;103554;1311;22486;-85
2023/01/07 08:43:52;;;;;;;50.80;46.40;;;;;;;5.59;100.00;98324.61;103395;1306;24083;-85
2023/01/07 08:46:20;;;;;;;49.60;45.10;;;;;;;5.69;100.00;98325.08;103436;1309;23574;-85
2023/01/07 08:48:48;;;;;;;48.80;44.80;;;;;;;5.77;100.00;98327.07;103402;1310;22515;-87
2023/01/07 08:51:16;;;;;;;45.50;41.50;;;;;;;5.86;100.00;98324.66;103577;1290;23894;-85
2023/01/07 08:53:44;;;;;;;43.40;39.70;;;;;;;5.93;100.00;98329.27;103558;1309;22497;-86
2023/01/07 08:56:12;;;;;;;38.80;35.60;;;;;;;6.02;100.00;98332.02;103529;1309;24251;-86
2023/01/07 08:58:40;;;;;;;40.40;37.10;;;;;;;6.10;100.00;98335.45;103638;1309;22686;-87
2023/01/07 09:01:13;;;;;;;38.10;34.90;;;;;;;6.19;100.00;98332.39;103794;1310;25942;-86
2023/01/07 09:03:42;;;;;;;48.30;44.40;;;;;;;6.29;100.00;98336.45;103625;1310;22485;-86
2023/01/07 09:06:10;;;;;;;45.40;41.60;;;;;;;6.36;100.00;98338.36;103303;1309;23100;-86
2023/01/07 09:08:39;;;;;;;43.60;39.90;;;;;;;6.41;100.00;98336.73;103410;1309;23302;-85
2023/01/07 09:11:07;;;;;;;47.40;43.50;;;;;;;6.43;100.00;98338.02;103366;1306;22767;-86
2023/01/07 09:13:35;;;;;;;47.80;43.70;;;;;;;6.45;100.00;98337.28;103559;1309;24308;-86
2023/01/07 09:16:03;;;;;;;46.10;42.20;;;;;;;6.51;100.00;98336.92;103535;1310;25450;-84
2023/01/07 09:18:31;;;;;;;56.00;51.20;;;;;;;6.56;100.00;98330.91;103887;1309;22722;-84
2023/01/07 09:21:00;;;;;;;64.90;59.60;;;;;;;6.61;100.00;98329.69;103382;1304;22503;-85
2023/01/07 09:23:28;;;;;;;85.10;77.10;;;;;;;6.65;100.00;98331.96;103580;1303;23956;-85
2023/01/07 09:25:56;;;;;;;84.70;77.10;;;;;;;6.69;100.00;98336.10;103611;1309;22561;-87
2023/01/07 09:28:24;;;;;;;92.30;83.00;;;;;;;6.71;100.00;98330.42;103452;1309;22677;-88
2023/01/07 09:30:52;;;;;;;87.40;78.90;;;;;;;6.70;100.00;98331.23;103427;1309;22557;-86
2023/01/07 09:33:23;;;;;;;80.50;73.00;;;;;;;6.70;100.00;98332.89;103468;1309;22467;-86
2023/01/07 09:35:51;;;;;;;80.30;72.40;;;;;;;6.69;100.00;98330.16;103603;1309;22429;-86
2023/01/07 09:38:19;;;;;;;75.80;69.10;;;;;;;6.72;100.00;98328.45;103484;1309;22653;-84
2023/01/07 09:40:48;;;;;;;83.40;75.60;;;;;;;6.77;100.00;98333.38;103486;1309;24293;-85
2023/01/07 09:43:42;;;;;;;79.40;71.80;;;;;;;6.82;100.00;98333.30;103408;1304;25692;-86
2023/01/07 09:46:56;;;;;;;62.50;57.20;;;;;;;6.96;100.00;98331.68;103488;1309;22567;-86
2023/01/07 09:49:28;;;;;;;63.30;58.00;;;;;;;7.08;100.00;98328.38;103487;1310;22645;-85
2023/01/07 09:52:14;;;;;;;61.20;56.00;;;;;;;7.21;100.00;98325.45;103549;1309;22601;-84
2023/01/07 09:54:47;;;;;;;55.60;50.90;;;;;;;7.34;100.00;98325.48;103409;1309;22483;-86
2023/01/07 09:57:16;;;;;;;52.60;48.00;;;;;;;7.42;100.00;98322.90;104262;1310;23920;-87
2023/01/07 10:04:31;;;;;;;47.00;42.90;;;;;;;7.64;100.00;98311.75;103438;1292;24044;-85
2023/01/07 10:12:02;;;;;;;46.00;42.10;;;;;;;7.87;100.00;98308.67;103513;1308;22473;-87
2023/01/07 10:14:52;;;;;;;50.90;46.30;;;;;;;7.93;100.00;98301.46;103508;1309;22594;-86
2023/01/07 10:17:20;;;;;;;55.10;50.50;;;;;;;8.00;100.00;98300.39;103420;1309;24462;-83
2023/01/07 10:20:01;;;;;;;47.40;43.30;;;;;;;8.01;100.00;98297.43;103491;1290;22494;-83
2023/01/07 10:23:09;;;;;;;49.30;45.10;;;;;;;8.03;100.00;98287.98;103438;1304;24459;-84
2023/01/07 10:25:52;;;;;;;43.00;39.10;;;;;;;8.04;100.00;98280.62;103606;1304;23118;-85
2023/01/07 10:28:29;;;;;;;40.00;36.50;;;;;;;8.09;100.00;98279.63;103878;1311;22536;-82
2023/01/07 10:30:59;;;;;;;37.30;34.10;;;;;;;8.09;100.00;98281.52;104456;1309;22477;-82
2023/01/07 10:33:30;;;;;;;36.60;33.50;;;;;;;8.06;100.00;98279.33;104190;1309;24347;-84
2023/01/07 10:36:18;;;;;;;37.70;34.50;;;;;;;8.03;100.00;98283.46;103682;1309;22591;-86
2023/01/07 10:39:10;;;;;;;35.50;32.40;;;;;;;8.02;100.00;98280.25;103880;1311;23885;-86
2023/01/07 10:42:24;;;;;;;39.90;36.30;;;;;;;8.09;100.00;98276.25;104007;1309;24388;-85
2023/01/07 10:45:18;;;;;;;36.50;33.50;;;;;;;8.20;100.00;98271.49;103717;1309;22886;-83
2023/01/07 10:47:46;;;;;;;30.70;28.00;;;;;;;8.25;100.00;98272.17;103502;1309;22619;-82
2023/01/07 10:50:52;;;;;;;30.60;27.80;;;;;;;8.25;100.00;98269.01;103433;1291;23049;-83
2023/01/07 10:53:29;;;;;;;26.90;24.40;;;;;;;8.31;100.00;98264.31;103494;1305;24459;-83
2023/01/07 10:56:16;;;;;;;22.80;20.70;;;;;;;8.39;100.00;98262.10;103525;1310;24209;-83
2023/01/07 10:58:47;;;;;;;22.10;20.00;;;;;;;8.43;100.00;98268.00;103477;1309;22477;-83
2023/01/07 11:01:25;;;;;;;21.80;19.70;;;;;;;8.42;100.00;98264.90;103462;1310;22560;-82
2023/01/07 11:03:56;;;;;;;24.20;22.00;;;;;;;8.43;100.00;98259.68;103654;1281;22511;-82
2023/01/07 11:06:33;;;;;;;25.50;23.10;;;;;;;8.44;100.00;98262.21;103314;1307;23123;-82
2023/01/07 11:09:05;;;;;;;24.40;22.20;;;;;;;8.50;100.00;98263.95;103598;1295;25235;-83
2023/01/07 11:11:35;;;;;;;22.50;20.50;;;;;;;8.60;100.00;98259.81;103616;1288;25700;-83
2023/01/07 11:14:10;;;;;;;23.80;21.70;;;;;;;8.71;100.00;98257.81;103201;1309;22591;-84
2023/01/07 11:16:50;;;;;;;24.10;21.90;;;;;;;8.79;100.00;98257.34;103478;1304;22550;-84
2023/01/07 11:19:18;;;;;;;25.00;22.70;;;;;;;8.86;100.00;98249.02;103446;1285;22445;-84
2023/01/07 11:21:51;;;;;;;25.70;23.40;;;;;;;8.87;100.00;98243.70;103714;1310;24288;-83
2023/01/07 11:24:32;;;;;;;23.00;20.60;;;;;;;8.93;100.00;98243.06;103327;1290;22489;-83
2023/01/07 11:27:15;;;;;;;17.50;15.90;;;;;;;9.12;100.00;98238.84;103244;1307;24205;-82
2023/01/07 11:30:18;;;;;;;18.00;16.30;;;;;;;9.98;99.98;98236.36;103491;1290;22517;-83
2023/01/07 11:33:02;;;;;;;17.60;15.90;;;;;;;10.83;98.42;98232.46;103435;1277;22480;-85
2023/01/07 11:35:31;;;;;;;15.90;14.30;;;;;;;11.13;97.03;98220.20;103172;1311;24288;-83
2023/01/07 11:37:59;;;;;;;48.80;43.40;;;;;;;11.39;96.69;98218.48;103568;1310;22613;-82
2023/01/07 11:40:30;;;;;;;21.80;19.60;;;;;;;11.84;98.73;98218.38;103409;1303;22574;-83
2023/01/07 11:43:02;;;;;;;12.50;11.20;;;;;;;12.94;99.02;98214.59;103443;1287;24324;-83
2023/01/07 11:45:55;;;;;;;10.30;9.00;;;;;;;14.26;98.12;98219.23;103411;1311;24322;-85
2023/01/07 11:48:51;;;;;;;14.50;13.10;;;;;;;15.64;96.99;98211.48;104775;1310;25473;-91
2023/01/07 11:51:21;;;;;;;11.30;10.10;;;;;;;16.56;94.23;98208.04;103546;1300;23458;-85
2023/01/07 11:53:54;;;;;;;9.00;8.00;;;;;;;17.24;90.77;98206.17;103647;1310;23183;-87
2023/01/07 11:56:26;;;;;;;8.80;7.90;;;;;;;17.66;90.91;98204.81;103542;1281;22481;-86
2023/01/07 11:59:30;;;;;;;10.10;7.90;;;;;;;17.97;89.05;98199.94;103607;1288;22506;-86
2023/01/07 12:01:58;;;;;;;9.70;7.10;;;;;;;18.42;89.28;98192.79;103496;1294;22534;-86
2023/01/07 12:04:30;;;;;;;7.90;7.00;;;;;;;18.79;87.92;98191.17;103521;1309;25386;-88